< < Back
Terminal Aerodrome Forecast


Current Version              Previous Versions:   1  2  3  4  5  6  7  8  9  

Terminal Aerodrome Forecast

482
FTUS44 KMRX 012324
TAFTYS
TAF
KTYS 012324Z 0200/0224 22006KT P6SM SCT100 SCT250
     FM021100 22003KT 4SM BR SCT250
     FM021300 23007KT P6SM SCT250
     FM021500 23010KT P6SM BKN250
     FM021800 26011KT P6SM VCTS SCT050CB BKN250=



Latest METAR

078
SAUS80 KWBC 020400
MTRTYS
METAR KTYS 020353Z 23005KT 10SM FEW130 24/21 A3008 RMK AO2 SLP173
T02440211


USA.gov is the U.S. government's official web portal to all federal, state and local government web resources and services.